Time;durP1;ratioP1;P1;durP2;ratioP2;P2;SDS_P1;SDS_P2;PMS_P1;PMS_P2;Temp;Humidity;BMP_temperature;BMP_pressure;BME280_temperature;BME280_humidity;BME280_pressure;Samples;Min_cycle;Max_cycle;Signal;HPM_P1;HPM_P2
2021/03/27 00:02:16;;;;;;;;;;;24.10;24.20;;;;;;5035097;28;19927;-70
2021/03/27 00:04:46;;;;;;;;;;;23.80;24.40;;;;;;5056793;28;20230;-70
2021/03/27 00:07:23;;;;;;;;;;;23.60;24.70;;;;;;5052598;28;19961;-70
2021/03/27 00:10:04;;;;;;;;;;;23.40;24.90;;;;;;5056151;28;19916;-70
2021/03/27 00:12:30;;;;;;;;;;;23.20;25.00;;;;;;5052657;28;19917;-70
2021/03/27 00:14:58;;;;;;;;;;;23.30;24.50;;;;;;5055436;28;19916;-70
2021/03/27 00:17:46;;;;;;;;;;;23.40;24.30;;;;;;5056722;28;19955;-70
2021/03/27 00:20:23;;;;;;;;;;;23.30;25.10;;;;;;5051563;28;19932;-71
2021/03/27 00:22:52;;;;;;;;;;;22.80;26.30;;;;;;5048248;28;19908;-70
2021/03/27 00:25:24;;;;;;;;;;;22.90;25.50;;;;;;5055114;28;19919;-70
2021/03/27 00:27:59;;;;;;;;;;;22.80;25.30;;;;;;5055094;28;19919;-70
2021/03/27 00:30:45;;;;;;;;;;;22.80;26.30;;;;;;5038155;28;19919;-70
2021/03/27 00:33:21;;;;;;;;;;;22.80;25.10;;;;;;5036675;28;20067;-72
2021/03/27 00:35:58;;;;;;;;;;;22.90;26.20;;;;;;5050641;28;19927;-70
2021/03/27 00:38:28;;;;;;;;;;;22.80;25.40;;;;;;5056067;28;20011;-70
2021/03/27 00:40:55;;;;;;;;;;;22.60;26.50;;;;;;5053685;28;19916;-70
2021/03/27 00:43:42;;;;;;;;;;;22.70;25.90;;;;;;5049196;28;19916;-71
2021/03/27 00:46:09;;;;;;;;;;;22.90;25.30;;;;;;5035835;28;19920;-71
2021/03/27 00:48:37;;;;;;;;;;;22.80;25.70;;;;;;5050645;28;20293;-72
2021/03/27 00:51:09;;;;;;;;;;;22.70;25.20;;;;;;5049618;28;19985;-72
2021/03/27 00:53:44;;;;;;;;;;;22.50;25.20;;;;;;5053911;28;19965;-71
2021/03/27 00:56:17;;;;;;;;;;;22.40;25.60;;;;;;5051424;28;20350;-72
2021/03/27 00:58:44;;;;;;;;;;;22.30;25.90;;;;;;5051250;28;19909;-73
2021/03/27 01:01:11;;;;;;;;;;;22.30;26.20;;;;;;5051379;28;19920;-71
2021/03/27 01:03:51;;;;;;;;;;;22.30;26.70;;;;;;5057966;28;20246;-75
2021/03/27 01:06:19;;;;;;;;;;;22.30;25.90;;;;;;5057636;28;19913;-73
2021/03/27 01:08:48;;;;;;;;;;;22.20;25.70;;;;;;5055968;28;19908;-72
2021/03/27 01:11:26;;;;;;;;;;;22.30;26.10;;;;;;5055056;28;19954;-72
2021/03/27 01:13:53;;;;;;;;;;;22.20;26.80;;;;;;5036546;28;20387;-71
2021/03/27 01:16:23;;;;;;;;;;;21.90;25.60;;;;;;5053963;28;19909;-73
2021/03/27 01:18:52;;;;;;;;;;;21.90;25.10;;;;;;5037457;28;19966;-72
2021/03/27 01:21:23;;;;;;;;;;;21.80;26.10;;;;;;5052887;28;19995;-73
2021/03/27 01:23:54;;;;;;;;;;;21.60;26.50;;;;;;5036940;28;19904;-72
2021/03/27 01:26:23;;;;;;;;;;;21.60;25.70;;;;;;5051699;28;19955;-72
2021/03/27 01:28:52;;;;;;;;;;;21.60;26.70;;;;;;5053992;28;20335;-72
2021/03/27 01:31:41;;;;;;;;;;;21.40;26.90;;;;;;5050075;28;19976;-71
2021/03/27 01:34:22;;;;;;;;;;;21.50;26.10;;;;;;5045729;28;20358;-70
2021/03/27 01:36:51;;;;;;;;;;;21.50;26.60;;;;;;5051956;28;19960;-70
2021/03/27 01:39:19;;;;;;;;;;;21.30;27.20;;;;;;5053962;28;19963;-69
2021/03/27 01:41:45;;;;;;;;;;;21.30;26.70;;;;;;5050310;28;19909;-70
2021/03/27 01:44:19;;;;;;;;;;;21.20;27.00;;;;;;5052483;28;20011;-72
2021/03/27 01:46:54;;;;;;;;;;;21.20;26.80;;;;;;5054258;28;19927;-70
2021/03/27 01:49:38;;;;;;;;;;;21.00;25.20;;;;;;5049042;28;19908;-70
2021/03/27 01:52:29;;;;;;;;;;;20.80;26.90;;;;;;5038350;28;19974;-71
2021/03/27 01:55:13;;;;;;;;;;;20.70;27.10;;;;;;5051925;28;19913;-71
2021/03/27 01:57:50;;;;;;;;;;;20.50;26.00;;;;;;5054114;28;19996;-71
2021/03/27 02:00:25;;;;;;;;;;;20.30;27.60;;;;;;5047363;28;19913;-72
2021/03/27 02:02:54;;;;;;;;;;;20.10;27.10;;;;;;5051289;28;19917;-71
2021/03/27 02:05:33;;;;;;;;;;;20.00;27.00;;;;;;5052534;28;20007;-71
2021/03/27 02:08:34;;;;;;;;;;;19.90;27.30;;;;;;5052506;28;19965;-71
2021/03/27 02:11:06;;;;;;;;;;;20.00;28.20;;;;;;4985121;28;19918;-71
2021/03/27 02:13:41;;;;;;;;;;;20.00;28.10;;;;;;5042891;28;20330;-71
2021/03/27 02:16:22;;;;;;;;;;;19.80;28.10;;;;;;5054461;28;19962;-71
2021/03/27 02:19:04;;;;;;;;;;;19.80;28.20;;;;;;5054890;28;19923;-71
2021/03/27 02:22:02;;;;;;;;;;;19.70;28.10;;;;;;5054143;28;19908;-71
2021/03/27 02:24:46;;;;;;;;;;;19.30;27.60;;;;;;5029709;28;19981;-71
2021/03/27 02:27:21;;;;;;;;;;;19.40;27.80;;;;;;5053566;28;19948;-71
2021/03/27 02:29:47;;;;;;;;;;;19.20;28.10;;;;;;5054255;28;19915;-71
2021/03/27 02:32:13;;;;;;;;;;;19.00;27.80;;;;;;5052882;28;19908;-70
2021/03/27 02:34:42;;;;;;;;;;;18.80;28.00;;;;;;5036652;28;20352;-70
2021/03/27 02:37:24;;;;;;;;;;;18.60;28.30;;;;;;5052838;28;20015;-71
2021/03/27 02:39:50;;;;;;;;;;;18.50;28.30;;;;;;5051748;28;19909;-71
2021/03/27 02:42:25;;;;;;;;;;;18.50;29.10;;;;;;5052031;28;19917;-73
2021/03/27 02:44:55;;;;;;;;;;;18.50;28.70;;;;;;5051188;28;19924;-71
2021/03/27 02:47:31;;;;;;;;;;;18.40;29.00;;;;;;5038479;28;19908;-71
2021/03/27 02:50:15;;;;;;;;;;;18.20;29.00;;;;;;5059169;28;19912;-72
2021/03/27 02:53:01;;;;;;;;;;;18.30;29.70;;;;;;5058510;28;20239;-72
2021/03/27 02:55:32;;;;;;;;;;;18.30;29.10;;;;;;5008083;28;19913;-73
2021/03/27 02:58:04;;;;;;;;;;;18.30;29.60;;;;;;5059954;28;19913;-73
2021/03/27 03:00:48;;;;;;;;;;;18.40;29.40;;;;;;5058636;28;19928;-72
2021/03/27 03:03:33;;;;;;;;;;;18.40;29.20;;;;;;5059520;28;19991;-73
2021/03/27 03:06:17;;;;;;;;;;;18.40;29.00;;;;;;5056997;28;19918;-72
2021/03/27 03:08:58;;;;;;;;;;;18.30;29.40;;;;;;5058584;28;19966;-73
2021/03/27 03:11:27;;;;;;;;;;;18.30;28.90;;;;;;5061101;28;19967;-72
2021/03/27 03:14:20;;;;;;;;;;;18.30;28.90;;;;;;5060118;28;20334;-73
2021/03/27 03:16:55;;;;;;;;;;;18.10;29.20;;;;;;5058826;28;19904;-72
2021/03/27 03:19:23;;;;;;;;;;;17.90;29.20;;;;;;5061188;28;20003;-73
2021/03/27 03:22:12;;;;;;;;;;;17.90;29.40;;;;;;5059117;28;19908;-72
2021/03/27 03:24:38;;;;;;;;;;;17.80;29.30;;;;;;5029770;28;20007;-72
2021/03/27 03:27:23;;;;;;;;;;;17.90;29.10;;;;;;5056107;28;20615;-73
2021/03/27 03:29:49;;;;;;;;;;;18.00;28.60;;;;;;5056731;28;19928;-72
2021/03/27 03:32:40;;;;;;;;;;;17.90;28.60;;;;;;5060722;28;20346;-73
2021/03/27 03:35:22;;;;;;;;;;;17.70;28.90;;;;;;5059189;28;20235;-73
2021/03/27 03:37:57;;;;;;;;;;;17.50;29.10;;;;;;5060591;28;19962;-74
2021/03/27 03:40:29;;;;;;;;;;;17.40;29.30;;;;;;5059424;28;19948;-74
2021/03/27 03:43:18;;;;;;;;;;;17.40;29.20;;;;;;5059660;28;20004;-74
2021/03/27 03:45:49;;;;;;;;;;;17.40;29.10;;;;;;5058557;28;19924;-72
2021/03/27 03:48:36;;;;;;;;;;;17.40;29.50;;;;;;5056394;28;20377;-72
2021/03/27 03:51:10;;;;;;;;;;;17.30;29.90;;;;;;5056342;28;19913;-73
2021/03/27 03:53:57;;;;;;;;;;;17.20;30.00;;;;;;5052983;28;19959;-73
2021/03/27 03:56:34;;;;;;;;;;;17.20;30.10;;;;;;5055797;28;19919;-73
2021/03/27 03:59:06;;;;;;;;;;;17.10;29.70;;;;;;5055000;28;19913;-72
2021/03/27 04:01:50;;;;;;;;;;;17.10;29.80;;;;;;5055216;28;19935;-72
2021/03/27 04:04:49;;;;;;;;;;;17.00;29.80;;;;;;5036163;28;19919;-72
2021/03/27 04:07:19;;;;;;;;;;;16.90;29.90;;;;;;5005181;28;20354;-72
2021/03/27 04:09:57;;;;;;;;;;;16.80;29.90;;;;;;5054358;28;20015;-74
2021/03/27 04:12:27;;;;;;;;;;;16.80;29.90;;;;;;5056853;28;19916;-72
2021/03/27 04:14:57;;;;;;;;;;;16.80;29.70;;;;;;5040075;28;19911;-73
2021/03/27 04:17:41;;;;;;;;;;;16.70;29.90;;;;;;5056840;28;19913;-72
2021/03/27 04:20:17;;;;;;;;;;;16.60;30.00;;;;;;5057929;28;19909;-73
2021/03/27 04:23:12;;;;;;;;;;;16.50;30.10;;;;;;5038407;28;20220;-73
2021/03/27 04:25:43;;;;;;;;;;;16.40;30.30;;;;;;4976526;28;19922;-73
2021/03/27 04:28:20;;;;;;;;;;;16.30;30.90;;;;;;5056846;28;19916;-74
2021/03/27 04:30:57;;;;;;;;;;;16.20;31.10;;;;;;5056944;28;19917;-73
2021/03/27 04:33:41;;;;;;;;;;;16.20;31.00;;;;;;5057390;28;20346;-73
2021/03/27 04:36:20;;;;;;;;;;;16.10;31.00;;;;;;5048275;28;20274;-73
2021/03/27 04:38:49;;;;;;;;;;;16.10;31.10;;;;;;5056984;28;19920;-73
2021/03/27 04:41:29;;;;;;;;;;;15.90;31.60;;;;;;5048481;28;19967;-73
2021/03/27 04:44:00;;;;;;;;;;;15.80;31.40;;;;;;5039789;28;19908;-73
2021/03/27 04:46:49;;;;;;;;;;;15.80;31.40;;;;;;5053784;28;19913;-74
2021/03/27 04:49:15;;;;;;;;;;;15.80;31.70;;;;;;5027003;28;19991;-74
2021/03/27 04:51:56;;;;;;;;;;;15.60;31.90;;;;;;5054844;28;19955;-73
2021/03/27 04:54:32;;;;;;;;;;;15.50;32.10;;;;;;5053917;28;19912;-72
2021/03/27 04:57:27;;;;;;;;;;;15.40;32.20;;;;;;5048935;28;19909;-72
2021/03/27 05:00:09;;;;;;;;;;;15.30;32.50;;;;;;5013184;28;20002;-73
2021/03/27 05:02:58;;;;;;;;;;;15.20;32.80;;;;;;5036838;28;19913;-73
2021/03/27 05:05:24;;;;;;;;;;;15.20;33.20;;;;;;5052191;28;19915;-72
2021/03/27 05:08:01;;;;;;;;;;;15.00;33.30;;;;;;5053608;28;19909;-72
2021/03/27 05:10:27;;;;;;;;;;;14.80;33.70;;;;;;5054772;28;19920;-72
2021/03/27 05:13:06;;;;;;;;;;;14.80;34.00;;;;;;5045504;28;19905;-73
2021/03/27 05:15:50;;;;;;;;;;;14.80;34.50;;;;;;5050721;28;19951;-73
2021/03/27 05:18:27;;;;;;;;;;;14.70;34.30;;;;;;5054953;28;19908;-72
2021/03/27 05:21:12;;;;;;;;;;;14.50;34.60;;;;;;5054889;28;19908;-72
2021/03/27 05:23:48;;;;;;;;;;;14.40;34.90;;;;;;5044803;28;20002;-72
2021/03/27 05:26:14;;;;;;;;;;;14.10;34.80;;;;;;5051257;28;19936;-72
2021/03/27 05:28:50;;;;;;;;;;;14.00;35.20;;;;;;5054343;28;19912;-72
2021/03/27 05:31:31;;;;;;;;;;;14.20;36.30;;;;;;5053491;28;19909;-72
2021/03/27 05:34:17;;;;;;;;;;;14.00;35.60;;;;;;5037106;28;19974;-71
2021/03/27 05:36:46;;;;;;;;;;;13.80;36.10;;;;;;5053049;28;19982;-70
2021/03/27 05:39:31;;;;;;;;;;;13.90;36.50;;;;;;5051754;28;20316;-70
2021/03/27 05:42:15;;;;;;;;;;;13.90;35.60;;;;;;5052619;28;19908;-71
2021/03/27 05:44:59;;;;;;;;;;;13.70;36.00;;;;;;5051158;28;20335;-70
2021/03/27 05:47:44;;;;;;;;;;;13.70;36.20;;;;;;5049251;28;19920;-70
2021/03/27 05:50:28;;;;;;;;;;;13.70;35.70;;;;;;5051999;28;20330;-70
2021/03/27 05:53:00;;;;;;;;;;;13.70;36.20;;;;;;5051186;28;19963;-71
2021/03/27 05:55:52;;;;;;;;;;;13.70;35.80;;;;;;5053474;28;19908;-71
2021/03/27 05:58:33;;;;;;;;;;;13.50;36.00;;;;;;5015545;28;19971;-70
2021/03/27 06:01:19;;;;;;;;;;;13.50;36.90;;;;;;5052735;28;19912;-70
2021/03/27 06:03:59;;;;;;;;;;;13.70;36.90;;;;;;5019651;28;20219;-71
2021/03/27 06:06:38;;;;;;;;;;;13.60;36.70;;;;;;5052424;28;19925;-70
2021/03/27 06:09:07;;;;;;;;;;;13.60;37.20;;;;;;5052555;28;19912;-70
2021/03/27 06:11:33;;;;;;;;;;;13.50;37.40;;;;;;5052400;28;19908;-70
2021/03/27 06:14:02;;;;;;;;;;;13.40;36.50;;;;;;5050312;28;19908;-70
2021/03/27 06:16:46;;;;;;;;;;;13.30;36.90;;;;;;5049917;28;19946;-71
2021/03/27 06:19:12;;;;;;;;;;;13.40;36.90;;;;;;5030798;28;19908;-70
2021/03/27 06:21:41;;;;;;;;;;;13.50;37.10;;;;;;5049391;28;19920;-70
2021/03/27 06:24:25;;;;;;;;;;;13.70;36.80;;;;;;5052070;28;19982;-70
2021/03/27 06:27:05;;;;;;;;;;;13.70;36.30;;;;;;5049066;28;19982;-71
2021/03/27 06:29:40;;;;;;;;;;;13.70;36.50;;;;;;5049130;28;19912;-70
2021/03/27 06:32:41;;;;;;;;;;;13.80;36.70;;;;;;5050304;28;20000;-71
2021/03/27 06:35:17;;;;;;;;;;;13.70;36.50;;;;;;4984234;28;19935;-72
2021/03/27 06:37:56;;;;;;;;;;;13.60;36.60;;;;;;5043836;28;19930;-72
2021/03/27 06:40:28;;;;;;;;;;;13.60;36.90;;;;;;5052836;28;19913;-71
2021/03/27 06:43:20;;;;;;;;;;;13.80;37.20;;;;;;5055031;28;19920;-73
2021/03/27 06:45:56;;;;;;;;;;;13.70;37.30;;;;;;5049500;28;19916;-71
2021/03/27 06:48:28;;;;;;;;;;;13.80;37.30;;;;;;5052438;28;19964;-71
2021/03/27 06:51:12;;;;;;;;;;;13.70;37.70;;;;;;5051531;28;20377;-71
2021/03/27 06:53:57;;;;;;;;;;;13.60;37.70;;;;;;5051529;28;19909;-70
2021/03/27 06:56:23;;;;;;;;;;;13.60;37.90;;;;;;5052061;28;20313;-71
2021/03/27 06:59:11;;;;;;;;;;;13.50;38.20;;;;;;5053365;28;19955;-71
2021/03/27 07:01:46;;;;;;;;;;;13.40;38.40;;;;;;5047254;28;20234;-70
2021/03/27 07:04:28;;;;;;;;;;;13.30;38.50;;;;;;5048681;28;20023;-70
2021/03/27 07:06:54;;;;;;;;;;;13.20;38.40;;;;;;5051286;28;20231;-70
2021/03/27 07:09:26;;;;;;;;;;;13.20;38.30;;;;;;5051070;28;20277;-69
2021/03/27 07:12:19;;;;;;;;;;;13.20;38.80;;;;;;5052753;28;19905;-71
2021/03/27 07:14:57;;;;;;;;;;;13.20;39.00;;;;;;5052401;28;19959;-70
2021/03/27 07:17:36;;;;;;;;;;;13.10;39.00;;;;;;5051586;28;19909;-71
2021/03/27 07:20:02;;;;;;;;;;;13.00;38.50;;;;;;5032655;28;19909;-70
2021/03/27 07:22:43;;;;;;;;;;;12.90;38.40;;;;;;5052130;28;19912;-70
2021/03/27 07:25:27;;;;;;;;;;;12.80;39.30;;;;;;5052730;28;19913;-70
2021/03/27 07:28:12;;;;;;;;;;;12.90;39.30;;;;;;5051828;28;20003;-70
2021/03/27 07:30:45;;;;;;;;;;;13.00;39.60;;;;;;5049969;28;19920;-70
2021/03/27 07:33:27;;;;;;;;;;;13.00;39.70;;;;;;5033384;28;19942;-71
2021/03/27 07:36:19;;;;;;;;;;;13.00;39.30;;;;;;5053567;28;19954;-70
2021/03/27 07:38:52;;;;;;;;;;;12.90;39.90;;;;;;5028951;28;19916;-71
2021/03/27 07:41:40;;;;;;;;;;;12.80;39.40;;;;;;5054778;28;19909;-70
2021/03/27 07:44:09;;;;;;;;;;;12.70;39.70;;;;;;5055891;28;19915;-70
2021/03/27 07:46:54;;;;;;;;;;;12.60;39.80;;;;;;5036212;28;19956;-70
2021/03/27 07:49:23;;;;;;;;;;;12.60;40.00;;;;;;5055136;28;19913;-71
2021/03/27 07:52:04;;;;;;;;;;;12.60;40.20;;;;;;5054971;28;19909;-70
2021/03/27 07:54:38;;;;;;;;;;;12.50;39.70;;;;;;5054491;28;19913;-70
2021/03/27 07:57:11;;;;;;;;;;;12.30;39.40;;;;;;5055513;28;19912;-70
2021/03/27 07:59:47;;;;;;;;;;;12.20;39.40;;;;;;5053671;28;19916;-70
2021/03/27 08:02:31;;;;;;;;;;;12.20;39.90;;;;;;5054853;28;19909;-71
2021/03/27 08:05:20;;;;;;;;;;;12.20;39.90;;;;;;5054265;28;19996;-70
2021/03/27 08:07:49;;;;;;;;;;;12.20;39.90;;;;;;5048252;28;19909;-70
2021/03/27 08:10:35;;;;;;;;;;;12.20;40.40;;;;;;5055936;28;19908;-70
2021/03/27 08:13:08;;;;;;;;;;;12.10;40.70;;;;;;5054659;28;19916;-70
2021/03/27 08:15:52;;;;;;;;;;;12.10;40.70;;;;;;5053689;28;19909;-71
2021/03/27 08:18:18;;;;;;;;;;;11.90;40.00;;;;;;5053851;28;19953;-71
2021/03/27 08:20:54;;;;;;;;;;;11.90;40.40;;;;;;5054929;28;20282;-71
2021/03/27 08:23:26;;;;;;;;;;;11.80;40.50;;;;;;5055774;28;20223;-70
2021/03/27 08:26:04;;;;;;;;;;;11.80;40.70;;;;;;5054369;28;20011;-71
2021/03/27 08:28:48;;;;;;;;;;;11.80;41.10;;;;;;5054550;28;19920;-71
2021/03/27 08:31:27;;;;;;;;;;;11.70;40.70;;;;;;5055057;28;20003;-72
2021/03/27 08:34:05;;;;;;;;;;;11.60;40.80;;;;;;5054998;28;19948;-73
2021/03/27 08:36:49;;;;;;;;;;;11.70;42.80;;;;;;5056497;28;20003;-72
2021/03/27 08:39:21;;;;;;;;;;;11.80;42.70;;;;;;5055848;28;19909;-71
2021/03/27 08:41:47;;;;;;;;;;;11.70;42.10;;;;;;5037262;28;20350;-70
2021/03/27 08:44:31;;;;;;;;;;;11.60;41.90;;;;;;5053805;28;19908;-70
2021/03/27 08:47:01;;;;;;;;;;;11.40;41.70;;;;;;5052931;28;20386;-70
2021/03/27 08:49:46;;;;;;;;;;;11.30;42.10;;;;;;5053057;28;19913;-70
2021/03/27 08:52:15;;;;;;;;;;;11.30;42.10;;;;;;5054851;28;19909;-70
2021/03/27 08:54:50;;;;;;;;;;;11.50;43.90;;;;;;5052724;28;19908;-70
2021/03/27 08:57:29;;;;;;;;;;;11.60;44.10;;;;;;5054165;28;19912;-70
2021/03/27 09:00:04;;;;;;;;;;;11.70;43.50;;;;;;5052596;28;19909;-71
2021/03/27 09:02:49;;;;;;;;;;;11.40;42.60;;;;;;5054121;28;19939;-71
2021/03/27 09:05:15;;;;;;;;;;;11.20;42.80;;;;;;5053939;28;19912;-71
2021/03/27 09:07:59;;;;;;;;;;;11.00;42.20;;;;;;5054271;28;19916;-70
2021/03/27 09:10:34;;;;;;;;;;;11.10;43.70;;;;;;5052567;28;19927;-70
2021/03/27 09:13:06;;;;;;;;;;;11.40;44.70;;;;;;5054450;28;20461;-70
2021/03/27 09:15:47;;;;;;;;;;;11.30;44.50;;;;;;5053416;28;19916;-71
2021/03/27 09:18:31;;;;;;;;;;;11.30;44.40;;;;;;5052156;28;19928;-71
2021/03/27 09:21:06;;;;;;;;;;;11.30;43.90;;;;;;5035393;28;19908;-71
2021/03/27 09:23:38;;;;;;;;;;;11.30;44.90;;;;;;5053452;28;19920;-70
2021/03/27 09:26:12;;;;;;;;;;;11.30;45.00;;;;;;5052363;28;20369;-71
2021/03/27 09:29:01;;;;;;;;;;;11.30;45.20;;;;;;5051698;28;19925;-70
2021/03/27 09:31:44;;;;;;;;;;;11.30;45.50;;;;;;5040305;28;19994;-71
2021/03/27 09:34:30;;;;;;;;;;;11.20;45.20;;;;;;5052130;28;19982;-70
2021/03/27 09:37:02;;;;;;;;;;;11.20;45.70;;;;;;5041806;28;19962;-72
2021/03/27 09:39:47;;;;;;;;;;;11.10;45.20;;;;;;5052012;28;19909;-70
2021/03/27 09:42:13;;;;;;;;;;;11.00;45.10;;;;;;5053668;28;20326;-71
2021/03/27 09:45:01;;;;;;;;;;;10.90;44.70;;;;;;5047246;28;19942;-71
2021/03/27 09:47:48;;;;;;;;;;;11.00;45.40;;;;;;5051351;28;19921;-70
2021/03/27 09:50:14;;;;;;;;;;;11.10;45.80;;;;;;5050381;28;19951;-70
2021/03/27 09:52:49;;;;;;;;;;;11.00;46.10;;;;;;5034975;28;19962;-71
2021/03/27 09:55:34;;;;;;;;;;;11.10;46.10;;;;;;5052205;28;19912;-71
2021/03/27 09:58:23;;;;;;;;;;;11.00;45.80;;;;;;5051810;28;19978;-70
2021/03/27 10:00:53;;;;;;;;;;;11.00;46.20;;;;;;5041391;28;19992;-70
2021/03/27 10:03:34;;;;;;;;;;;10.90;46.10;;;;;;5051720;28;20003;-71
2021/03/27 10:06:18;;;;;;;;;;;10.80;46.50;;;;;;5052281;28;19913;-71
2021/03/27 10:09:03;;;;;;;;;;;10.70;45.60;;;;;;5052572;28;20328;-70
2021/03/27 10:11:31;;;;;;;;;;;10.50;45.40;;;;;;5051793;28;19939;-71
2021/03/27 10:13:57;;;;;;;;;;;10.60;45.60;;;;;;5036893;28;19913;-71
2021/03/27 10:16:23;;;;;;;;;;;10.50;45.60;;;;;;5053994;28;19912;-70
2021/03/27 10:18:49;;;;;;;;;;;10.70;47.20;;;;;;5053529;28;19915;-70
2021/03/27 10:21:18;;;;;;;;;;;10.90;46.90;;;;;;5042825;28;20007;-71
2021/03/27 10:23:58;;;;;;;;;;;11.00;46.50;;;;;;5051657;28;20266;-71
2021/03/27 10:26:36;;;;;;;;;;;11.00;46.70;;;;;;5036635;28;20167;-71
2021/03/27 10:32:24;;;;;;;;;;;10.70;45.30;;;;;;5055676;28;19924;-71
2021/03/27 10:35:10;;;;;;;;;;;10.80;46.00;;;;;;5054491;28;19909;-71
2021/03/27 10:37:44;;;;;;;;;;;10.60;45.40;;;;;;5051979;28;19916;-71
2021/03/27 10:40:29;;;;;;;;;;;10.80;47.00;;;;;;5049958;28;19913;-70
2021/03/27 10:43:13;;;;;;;;;;;10.80;46.30;;;;;;5052558;28;20086;-71
2021/03/27 10:45:49;;;;;;;;;;;10.90;47.00;;;;;;5052816;28;19913;-71
2021/03/27 10:48:21;;;;;;;;;;;10.90;46.90;;;;;;5052491;28;20007;-71
2021/03/27 10:51:07;;;;;;;;;;;10.90;46.60;;;;;;5051654;28;20314;-71
2021/03/27 10:53:45;;;;;;;;;;;10.70;46.90;;;;;;5025981;28;19912;-71
2021/03/27 10:56:23;;;;;;;;;;;10.60;46.30;;;;;;5052513;28;20476;-71
2021/03/27 10:59:00;;;;;;;;;;;10.60;47.20;;;;;;5049941;28;20388;-71
2021/03/27 11:01:45;;;;;;;;;;;10.60;47.30;;;;;;5050674;28;19927;-71
2021/03/27 11:04:21;;;;;;;;;;;10.60;47.80;;;;;;5049982;28;19923;-70
2021/03/27 11:07:06;;;;;;;;;;;10.70;48.50;;;;;;5043836;28;19978;-70
2021/03/27 11:09:58;;;;;;;;;;;10.70;48.40;;;;;;5055826;28;20253;-70
2021/03/27 11:12:36;;;;;;;;;;;10.60;48.10;;;;;;5053936;28;19999;-70
2021/03/27 11:15:02;;;;;;;;;;;10.70;48.50;;;;;;5055593;28;19909;-70
2021/03/27 11:17:49;;;;;;;;;;;10.60;48.10;;;;;;5054809;28;19916;-71
2021/03/27 11:20:34;;;;;;;;;;;10.60;48.80;;;;;;5046306;28;19909;-71
2021/03/27 11:23:00;;;;;;;;;;;10.60;48.40;;;;;;5057002;28;19924;-70
2021/03/27 11:25:52;;;;;;;;;;;10.60;48.70;;;;;;5045409;28;19913;-71
2021/03/27 11:28:35;;;;;;;;;;;10.50;48.90;;;;;;5018115;28;19920;-70
2021/03/27 11:31:13;;;;;;;;;;;10.50;48.90;;;;;;5056602;28;19999;-71
2021/03/27 11:33:58;;;;;;;;;;;10.30;48.60;;;;;;5037290;28;20285;-71
2021/03/27 11:36:30;;;;;;;;;;;10.30;49.20;;;;;;5054888;28;19921;-70
2021/03/27 11:38:59;;;;;;;;;;;10.20;48.50;;;;;;5036906;28;19909;-71
2021/03/27 11:41:39;;;;;;;;;;;10.50;50.20;;;;;;5054086;28;19952;-70
2021/03/27 11:44:41;;;;;;;;;;;10.60;49.90;;;;;;5054861;28;19996;-71
2021/03/27 11:47:20;;;;;;;;;;;10.60;49.20;;;;;;4975043;28;20606;-71
2021/03/27 11:49:51;;;;;;;;;;;10.50;49.10;;;;;;5047272;28;19923;-71
2021/03/27 11:52:26;;;;;;;;;;;10.40;49.10;;;;;;5055657;28;19986;-71
2021/03/27 11:55:02;;;;;;;;;;;10.40;49.20;;;;;;5056522;28;19948;-71
2021/03/27 11:57:47;;;;;;;;;;;10.50;49.60;;;;;;5038693;28;20346;-71
2021/03/27 12:03:20;;;;;;;;;;;10.60;49.20;;;;;;5054631;28;19916;-72
2021/03/27 12:06:13;;;;;;;;;;;10.60;49.60;;;;;;5056294;28;19923;-70
2021/03/27 12:08:44;;;;;;;;;;;10.60;49.90;;;;;;5050245;28;20317;-71
2021/03/27 12:11:18;;;;;;;;;;;10.60;49.50;;;;;;5056576;28;19951;-71
2021/03/27 12:13:50;;;;;;;;;;;10.60;50.00;;;;;;5053334;28;19908;-71
2021/03/27 12:16:25;;;;;;;;;;;10.70;50.10;;;;;;5038382;28;19908;-71
2021/03/27 12:18:59;;;;;;;;;;;10.60;49.70;;;;;;5055684;28;19912;-71
2021/03/27 12:21:55;;;;;;;;;;;10.50;50.30;;;;;;5037712;28;19917;-71
2021/03/27 12:24:30;;;;;;;;;;;10.40;50.00;;;;;;5024652;28;20272;-72
2021/03/27 12:27:14;;;;;;;;;;;10.20;49.90;;;;;;5058412;28;20011;-71
2021/03/27 12:29:42;;;;;;;;;;;10.40;50.90;;;;;;5054850;28;19999;-72
2021/03/27 12:32:17;;;;;;;;;;;10.30;49.90;;;;;;5055009;28;19908;-71
2021/03/27 12:34:43;;;;;;;;;;;10.20;50.40;;;;;;5053734;28;19908;-71
2021/03/27 12:37:26;;;;;;;;;;;10.30;50.50;;;;;;5055259;28;19920;-71
2021/03/27 12:40:31;;;;;;;;;;;10.10;49.60;;;;;;5055865;28;20397;-71
2021/03/27 12:42:57;;;;;;;;;;;9.90;50.00;;;;;;4977205;28;19910;-71
2021/03/27 12:45:29;;;;;;;;;;;10.10;50.70;;;;;;4994009;28;19914;-71
2021/03/27 12:48:13;;;;;;;;;;;10.20;51.20;;;;;;5024715;28;19965;-71
2021/03/27 12:50:46;;;;;;;;;;;10.20;51.40;;;;;;5055202;28;19916;-71
2021/03/27 12:53:12;;;;;;;;;;;10.20;51.50;;;;;;5053732;28;19951;-71
2021/03/27 12:55:38;;;;;;;;;;;10.20;51.10;;;;;;5045946;28;19947;-71
2021/03/27 12:58:19;;;;;;;;;;;10.20;51.90;;;;;;5052637;28;20366;-71
2021/03/27 13:00:48;;;;;;;;;;;10.20;51.60;;;;;;5054395;28;19974;-71
2021/03/27 13:03:29;;;;;;;;;;;10.00;50.50;;;;;;5036529;28;20326;-71
2021/03/27 13:05:55;;;;;;;;;;;9.90;51.00;;;;;;5053116;28;19912;-71
2021/03/27 13:08:48;;;;;;;;;;;9.80;50.50;;;;;;5036991;28;19915;-71
2021/03/27 13:11:16;;;;;;;;;;;9.70;51.00;;;;;;5016413;28;19908;-71
2021/03/27 13:14:20;;;;;;;;;;;10.00;52.10;;;;;;5053909;28;20389;-71
2021/03/27 13:16:48;;;;;;;;;;;10.00;51.70;;;;;;5053509;28;20366;-71
2021/03/27 13:19:32;;;;;;;;;;;10.00;51.90;;;;;;5053075;28;19909;-71
2021/03/27 13:22:19;;;;;;;;;;;10.00;51.80;;;;;;5051581;28;20338;-71
2021/03/27 13:24:54;;;;;;;;;;;10.00;52.40;;;;;;5052760;28;19913;-71
2021/03/27 13:27:43;;;;;;;;;;;10.00;53.10;;;;;;5051154;28;19920;-71
2021/03/27 13:30:16;;;;;;;;;;;10.10;52.90;;;;;;5044228;28;19908;-71
2021/03/27 13:32:42;;;;;;;;;;;10.00;53.00;;;;;;5052656;28;19909;-71
2021/03/27 13:35:21;;;;;;;;;;;9.90;53.10;;;;;;5053104;28;20396;-72
2021/03/27 13:37:51;;;;;;;;;;;10.00;53.40;;;;;;5048581;28;20326;-71
2021/03/27 13:40:24;;;;;;;;;;;10.00;53.90;;;;;;5051052;28;20339;-71
2021/03/27 13:43:06;;;;;;;;;;;10.00;53.20;;;;;;5052538;28;19909;-71
2021/03/27 13:45:50;;;;;;;;;;;10.00;53.70;;;;;;5051003;28;19960;-71
2021/03/27 13:48:28;;;;;;;;;;;9.90;53.10;;;;;;5053091;28;19913;-71
2021/03/27 13:51:00;;;;;;;;;;;10.00;53.40;;;;;;5052494;28;21774;-72
2021/03/27 13:53:35;;;;;;;;;;;9.90;53.50;;;;;;5052755;28;19932;-71
2021/03/27 13:56:10;;;;;;;;;;;10.00;53.30;;;;;;5053043;28;19921;-71
2021/03/27 13:58:54;;;;;;;;;;;10.00;53.40;;;;;;5054954;28;20540;-71
2021/03/27 14:01:29;;;;;;;;;;;9.90;53.90;;;;;;5036077;28;19909;-71
2021/03/27 14:04:14;;;;;;;;;;;10.00;54.00;;;;;;5052707;28;19912;-71
2021/03/27 14:06:43;;;;;;;;;;;9.90;54.40;;;;;;5052149;28;19962;-71
2021/03/27 14:09:25;;;;;;;;;;;9.90;53.70;;;;;;5053095;28;19958;-71
2021/03/27 14:11:59;;;;;;;;;;;9.70;53.20;;;;;;5051883;28;19908;-71
2021/03/27 14:14:30;;;;;;;;;;;9.90;54.70;;;;;;5035201;28;20020;-71
2021/03/27 14:17:05;;;;;;;;;;;9.90;54.20;;;;;;5037308;28;19916;-71
2021/03/27 14:19:39;;;;;;;;;;;10.00;54.40;;;;;;5053151;28;19909;-72
2021/03/27 14:22:21;;;;;;;;;;;9.90;54.20;;;;;;5052343;28;19913;-71
2021/03/27 14:24:53;;;;;;;;;;;9.90;54.50;;;;;;5035236;28;19913;-71
2021/03/27 14:27:23;;;;;;;;;;;10.00;54.60;;;;;;5051507;28;19912;-71
2021/03/27 14:29:55;;;;;;;;;;;9.80;53.40;;;;;;5052331;28;19909;-71
2021/03/27 14:32:44;;;;;;;;;;;9.70;53.20;;;;;;5052198;28;20354;-71
2021/03/27 14:35:12;;;;;;;;;;;9.70;53.90;;;;;;5052516;28;19974;-71
2021/03/27 14:37:50;;;;;;;;;;;9.90;54.80;;;;;;5050841;28;19908;-71
2021/03/27 14:40:38;;;;;;;;;;;10.10;54.60;;;;;;5046787;28;19921;-71
2021/03/27 14:43:16;;;;;;;;;;;10.10;53.70;;;;;;5047772;28;19917;-71
2021/03/27 14:45:54;;;;;;;;;;;10.10;54.30;;;;;;5053139;28;19918;-71
2021/03/27 14:48:27;;;;;;;;;;;10.20;55.10;;;;;;5052959;28;20003;-71
2021/03/27 14:51:02;;;;;;;;;;;10.50;55.50;;;;;;5051591;28;20003;-71
2021/03/27 14:53:47;;;;;;;;;;;10.60;55.10;;;;;;5052547;28;19943;-71
2021/03/27 14:56:16;;;;;;;;;;;10.70;54.30;;;;;;5050458;28;19909;-71
2021/03/27 14:58:42;;;;;;;;;;;10.70;54.10;;;;;;5050567;28;19974;-71
2021/03/27 15:01:17;;;;;;;;;;;10.90;54.50;;;;;;5050430;28;20017;-71
2021/03/27 15:03:48;;;;;;;;;;;10.80;53.50;;;;;;5048234;28;19935;-71
2021/03/27 15:06:24;;;;;;;;;;;10.70;53.60;;;;;;5048999;28;20079;-71
2021/03/27 15:09:12;;;;;;;;;;;10.80;54.10;;;;;;5052017;28;19905;-71
2021/03/27 15:11:46;;;;;;;;;;;11.00;53.80;;;;;;5048345;28;19913;-71
2021/03/27 15:14:30;;;;;;;;;;;11.10;53.70;;;;;;5051047;28;19908;-71
2021/03/27 15:17:02;;;;;;;;;;;11.20;53.80;;;;;;5045649;28;20262;-71
2021/03/27 15:19:31;;;;;;;;;;;11.30;53.80;;;;;;5050955;28;19975;-71
2021/03/27 15:22:11;;;;;;;;;;;11.40;53.90;;;;;;5047758;28;19916;-73
2021/03/27 15:27:39;;;;;;;;;;;11.50;53.40;;;;;;5046836;28;19992;-72